sensor_id;sensor_type;location;lat;lon;timestamp;P1;durP1;ratioP1;P2;durP2;ratioP2
70592;SDS011;58294;42.988;20.338;2023-04-24T00:00:55;40.05;;;31.38;;
70592;SDS011;58294;42.988;20.338;2023-04-24T00:03:24;41.50;;;30.95;;
70592;SDS011;58294;42.988;20.338;2023-04-24T00:05:52;37.83;;;30.75;;
70592;SDS011;58294;42.988;20.338;2023-04-24T00:08:19;36.15;;;29.88;;
70592;SDS011;58294;42.988;20.338;2023-04-24T00:10:44;44.10;;;33.50;;
70592;SDS011;58294;42.988;20.338;2023-04-24T00:13:10;58.47;;;45.78;;
70592;SDS011;58294;42.988;20.338;2023-04-24T00:15:36;43.45;;;32.85;;
70592;SDS011;58294;42.988;20.338;2023-04-24T00:18:02;48.20;;;35.58;;
70592;SDS011;58294;42.988;20.338;2023-04-24T00:20:28;39.90;;;34.17;;
70592;SDS011;58294;42.988;20.338;2023-04-24T00:23:03;36.60;;;31.70;;
70592;SDS011;58294;42.988;20.338;2023-04-24T00:25:29;190.27;;;126.53;;
70592;SDS011;58294;42.988;20.338;2023-04-24T00:27:54;83.53;;;59.47;;
70592;SDS011;58294;42.988;20.338;2023-04-24T00:30:20;58.05;;;44.70;;
70592;SDS011;58294;42.988;20.338;2023-04-24T00:32:46;56.58;;;39.88;;
70592;SDS011;58294;42.988;20.338;2023-04-24T00:35:12;48.80;;;35.80;;
70592;SDS011;58294;42.988;20.338;2023-04-24T00:37:38;48.20;;;37.45;;
70592;SDS011;58294;42.988;20.338;2023-04-24T00:40:04;61.90;;;39.45;;
70592;SDS011;58294;42.988;20.338;2023-04-24T00:42:31;72.78;;;52.63;;
70592;SDS011;58294;42.988;20.338;2023-04-24T00:44:56;72.57;;;52.35;;
70592;SDS011;58294;42.988;20.338;2023-04-24T00:47:22;65.88;;;55.35;;
70592;SDS011;58294;42.988;20.338;2023-04-24T00:49:50;40.63;;;29.20;;
70592;SDS011;58294;42.988;20.338;2023-04-24T00:52:16;28.02;;;20.17;;
70592;SDS011;58294;42.988;20.338;2023-04-24T00:54:43;41.08;;;27.92;;
70592;SDS011;58294;42.988;20.338;2023-04-24T00:57:10;45.50;;;30.63;;
70592;SDS011;58294;42.988;20.338;2023-04-24T00:59:37;49.17;;;35.70;;
70592;SDS011;58294;42.988;20.338;2023-04-24T01:02:05;56.65;;;40.40;;
70592;SDS011;58294;42.988;20.338;2023-04-24T01:04:32;47.28;;;38.25;;
70592;SDS011;58294;42.988;20.338;2023-04-24T01:06:58;54.15;;;38.80;;
70592;SDS011;58294;42.988;20.338;2023-04-24T01:09:25;52.60;;;42.15;;
70592;SDS011;58294;42.988;20.338;2023-04-24T01:11:51;53.72;;;39.58;;
70592;SDS011;58294;42.988;20.338;2023-04-24T01:14:17;53.83;;;39.05;;
70592;SDS011;58294;42.988;20.338;2023-04-24T01:16:42;55.15;;;33.42;;
70592;SDS011;58294;42.988;20.338;2023-04-24T01:19:08;49.50;;;35.75;;
70592;SDS011;58294;42.988;20.338;2023-04-24T01:21:37;42.90;;;28.98;;
70592;SDS011;58294;42.988;20.338;2023-04-24T01:24:05;41.53;;;31.60;;
70592;SDS011;58294;42.988;20.338;2023-04-24T01:26:31;39.47;;;29.55;;
70592;SDS011;58294;42.988;20.338;2023-04-24T01:28:57;41.20;;;33.60;;
70592;SDS011;58294;42.988;20.338;2023-04-24T01:31:23;47.45;;;31.77;;
70592;SDS011;58294;42.988;20.338;2023-04-24T01:33:49;49.63;;;37.13;;
70592;SDS011;58294;42.988;20.338;2023-04-24T01:36:16;56.85;;;47.20;;
70592;SDS011;58294;42.988;20.338;2023-04-24T01:38:43;49.95;;;38.80;;
70592;SDS011;58294;42.988;20.338;2023-04-24T01:41:09;45.65;;;37.38;;
70592;SDS011;58294;42.988;20.338;2023-04-24T01:43:35;41.42;;;30.38;;
70592;SDS011;58294;42.988;20.338;2023-04-24T01:46:01;43.42;;;30.90;;
70592;SDS011;58294;42.988;20.338;2023-04-24T01:48:27;45.03;;;34.78;;
70592;SDS011;58294;42.988;20.338;2023-04-24T01:50:53;49.60;;;33.92;;
70592;SDS011;58294;42.988;20.338;2023-04-24T01:53:19;27.35;;;18.98;;
70592;SDS011;58294;42.988;20.338;2023-04-24T01:55:45;34.65;;;30.00;;
70592;SDS011;58294;42.988;20.338;2023-04-24T01:58:11;21.55;;;18.85;;
70592;SDS011;58294;42.988;20.338;2023-04-24T02:00:37;29.10;;;25.38;;
70592;SDS011;58294;42.988;20.338;2023-04-24T02:03:03;34.60;;;29.33;;
70592;SDS011;58294;42.988;20.338;2023-04-24T02:05:28;26.40;;;18.45;;
70592;SDS011;58294;42.988;20.338;2023-04-24T02:07:54;23.17;;;19.55;;
70592;SDS011;58294;42.988;20.338;2023-04-24T02:10:20;25.80;;;20.85;;
70592;SDS011;58294;42.988;20.338;2023-04-24T02:12:46;29.02;;;20.35;;
70592;SDS011;58294;42.988;20.338;2023-04-24T02:15:12;38.83;;;24.00;;
70592;SDS011;58294;42.988;20.338;2023-04-24T02:17:38;36.17;;;31.50;;
70592;SDS011;58294;42.988;20.338;2023-04-24T02:20:04;31.58;;;21.73;;
70592;SDS011;58294;42.988;20.338;2023-04-24T02:22:31;32.67;;;22.77;;
70592;SDS011;58294;42.988;20.338;2023-04-24T02:24:57;31.52;;;22.30;;
70592;SDS011;58294;42.988;20.338;2023-04-24T02:27:23;49.28;;;37.10;;
70592;SDS011;58294;42.988;20.338;2023-04-24T02:29:49;73.28;;;52.08;;
70592;SDS011;58294;42.988;20.338;2023-04-24T02:32:15;65.80;;;44.78;;
70592;SDS011;58294;42.988;20.338;2023-04-24T02:34:41;75.05;;;55.05;;
70592;SDS011;58294;42.988;20.338;2023-04-24T02:37:06;158.70;;;124.15;;
70592;SDS011;58294;42.988;20.338;2023-04-24T02:39:32;195.48;;;146.93;;
70592;SDS011;58294;42.988;20.338;2023-04-24T02:41:58;48.78;;;32.85;;
70592;SDS011;58294;42.988;20.338;2023-04-24T02:44:24;42.38;;;32.05;;
70592;SDS011;58294;42.988;20.338;2023-04-24T02:46:49;22.90;;;18.10;;
70592;SDS011;58294;42.988;20.338;2023-04-24T02:49:15;19.55;;;15.13;;
70592;SDS011;58294;42.988;20.338;2023-04-24T02:51:41;25.30;;;17.83;;
70592;SDS011;58294;42.988;20.338;2023-04-24T02:54:07;22.45;;;18.15;;
70592;SDS011;58294;42.988;20.338;2023-04-24T02:56:36;24.85;;;18.10;;
70592;SDS011;58294;42.988;20.338;2023-04-24T02:59:02;30.75;;;18.67;;
70592;SDS011;58294;42.988;20.338;2023-04-24T03:01:28;24.90;;;18.95;;
70592;SDS011;58294;42.988;20.338;2023-04-24T03:03:54;25.13;;;20.10;;
70592;SDS011;58294;42.988;20.338;2023-04-24T03:06:20;33.33;;;22.98;;
70592;SDS011;58294;42.988;20.338;2023-04-24T03:08:46;40.45;;;28.20;;
70592;SDS011;58294;42.988;20.338;2023-04-24T03:11:12;38.72;;;24.48;;
70592;SDS011;58294;42.988;20.338;2023-04-24T03:13:38;38.70;;;26.35;;
70592;SDS011;58294;42.988;20.338;2023-04-24T03:16:04;36.28;;;26.48;;
70592;SDS011;58294;42.988;20.338;2023-04-24T03:18:30;34.30;;;26.38;;
70592;SDS011;58294;42.988;20.338;2023-04-24T03:20:56;31.75;;;27.27;;
70592;SDS011;58294;42.988;20.338;2023-04-24T03:23:22;32.72;;;22.98;;
70592;SDS011;58294;42.988;20.338;2023-04-24T03:25:48;28.77;;;21.50;;
70592;SDS011;58294;42.988;20.338;2023-04-24T03:28:14;19.88;;;16.05;;
70592;SDS011;58294;42.988;20.338;2023-04-24T03:30:40;20.52;;;15.52;;
70592;SDS011;58294;42.988;20.338;2023-04-24T03:33:06;20.33;;;16.27;;
70592;SDS011;58294;42.988;20.338;2023-04-24T03:35:31;18.27;;;14.25;;
70592;SDS011;58294;42.988;20.338;2023-04-24T03:37:57;16.02;;;14.02;;
70592;SDS011;58294;42.988;20.338;2023-04-24T03:40:23;24.30;;;17.85;;
70592;SDS011;58294;42.988;20.338;2023-04-24T03:42:49;17.42;;;14.65;;
70592;SDS011;58294;42.988;20.338;2023-04-24T03:45:15;16.63;;;13.88;;
70592;SDS011;58294;42.988;20.338;2023-04-24T03:47:40;17.50;;;14.35;;
70592;SDS011;58294;42.988;20.338;2023-04-24T03:50:06;20.08;;;17.85;;
70592;SDS011;58294;42.988;20.338;2023-04-24T03:52:32;18.08;;;16.15;;
70592;SDS011;58294;42.988;20.338;2023-04-24T03:54:58;28.95;;;25.92;;
70592;SDS011;58294;42.988;20.338;2023-04-24T03:57:24;19.65;;;16.63;;
70592;SDS011;58294;42.988;20.338;2023-04-24T03:59:50;28.88;;;24.25;;
70592;SDS011;58294;42.988;20.338;2023-04-24T04:02:16;41.90;;;35.83;;
70592;SDS011;58294;42.988;20.338;2023-04-24T04:04:42;20.02;;;16.17;;
70592;SDS011;58294;42.988;20.338;2023-04-24T04:07:08;20.30;;;16.33;;
70592;SDS011;58294;42.988;20.338;2023-04-24T04:09:33;19.67;;;17.50;;
70592;SDS011;58294;42.988;20.338;2023-04-24T04:11:59;30.25;;;24.70;;
70592;SDS011;58294;42.988;20.338;2023-04-24T04:14:25;30.92;;;20.67;;
70592;SDS011;58294;42.988;20.338;2023-04-24T04:16:52;24.98;;;21.80;;
70592;SDS011;58294;42.988;20.338;2023-04-24T04:19:20;28.40;;;22.35;;
70592;SDS011;58294;42.988;20.338;2023-04-24T04:21:46;18.50;;;16.58;;
70592;SDS011;58294;42.988;20.338;2023-04-24T04:24:17;22.48;;;20.05;;
70592;SDS011;58294;42.988;20.338;2023-04-24T04:26:43;27.63;;;23.30;;
70592;SDS011;58294;42.988;20.338;2023-04-24T04:29:12;28.00;;;20.33;;
70592;SDS011;58294;42.988;20.338;2023-04-24T04:31:38;29.63;;;22.98;;
70592;SDS011;58294;42.988;20.338;2023-04-24T04:34:04;29.75;;;26.08;;
70592;SDS011;58294;42.988;20.338;2023-04-24T04:36:29;35.40;;;31.63;;
70592;SDS011;58294;42.988;20.338;2023-04-24T04:38:56;33.80;;;28.77;;
70592;SDS011;58294;42.988;20.338;2023-04-24T04:41:22;50.20;;;37.22;;
70592;SDS011;58294;42.988;20.338;2023-04-24T04:43:48;37.05;;;30.35;;
70592;SDS011;58294;42.988;20.338;2023-04-24T04:46:13;34.08;;;28.25;;
70592;SDS011;58294;42.988;20.338;2023-04-24T04:48:39;32.88;;;21.52;;
70592;SDS011;58294;42.988;20.338;2023-04-24T04:51:05;21.27;;;17.48;;
70592;SDS011;58294;42.988;20.338;2023-04-24T04:53:31;25.98;;;19.02;;
70592;SDS011;58294;42.988;20.338;2023-04-24T04:55:57;28.10;;;21.73;;
70592;SDS011;58294;42.988;20.338;2023-04-24T04:58:23;27.73;;;21.70;;
70592;SDS011;58294;42.988;20.338;2023-04-24T05:00:48;32.85;;;24.05;;
70592;SDS011;58294;42.988;20.338;2023-04-24T05:03:14;26.08;;;23.27;;
70592;SDS011;58294;42.988;20.338;2023-04-24T05:05:40;33.80;;;27.23;;
70592;SDS011;58294;42.988;20.338;2023-04-24T05:08:07;34.53;;;29.35;;
70592;SDS011;58294;42.988;20.338;2023-04-24T05:10:33;36.25;;;28.70;;
70592;SDS011;58294;42.988;20.338;2023-04-24T05:12:59;38.42;;;31.30;;
70592;SDS011;58294;42.988;20.338;2023-04-24T05:15:25;35.72;;;30.83;;
70592;SDS011;58294;42.988;20.338;2023-04-24T05:17:51;43.25;;;33.10;;
70592;SDS011;58294;42.988;20.338;2023-04-24T05:20:17;34.33;;;28.20;;
70592;SDS011;58294;42.988;20.338;2023-04-24T05:22:43;33.60;;;26.60;;
70592;SDS011;58294;42.988;20.338;2023-04-24T05:25:09;44.63;;;32.47;;
70592;SDS011;58294;42.988;20.338;2023-04-24T05:27:34;35.28;;;29.42;;
70592;SDS011;58294;42.988;20.338;2023-04-24T05:30:00;33.03;;;29.55;;
70592;SDS011;58294;42.988;20.338;2023-04-24T05:32:26;34.35;;;28.13;;
70592;SDS011;58294;42.988;20.338;2023-04-24T05:34:52;40.17;;;31.42;;
70592;SDS011;58294;42.988;20.338;2023-04-24T05:37:18;31.88;;;28.52;;
70592;SDS011;58294;42.988;20.338;2023-04-24T05:39:44;36.33;;;29.65;;
70592;SDS011;58294;42.988;20.338;2023-04-24T05:42:09;34.92;;;28.05;;
70592;SDS011;58294;42.988;20.338;2023-04-24T05:44:35;53.83;;;45.60;;
70592;SDS011;58294;42.988;20.338;2023-04-24T05:47:01;50.20;;;44.50;;
70592;SDS011;58294;42.988;20.338;2023-04-24T05:49:27;43.28;;;36.00;;
70592;SDS011;58294;42.988;20.338;2023-04-24T05:51:52;44.58;;;37.88;;
70592;SDS011;58294;42.988;20.338;2023-04-24T05:54:18;49.45;;;38.92;;
70592;SDS011;58294;42.988;20.338;2023-04-24T05:56:44;53.35;;;38.63;;
70592;SDS011;58294;42.988;20.338;2023-04-24T05:59:10;44.28;;;38.38;;
70592;SDS011;58294;42.988;20.338;2023-04-24T06:01:36;42.28;;;36.63;;
70592;SDS011;58294;42.988;20.338;2023-04-24T06:04:02;45.65;;;37.92;;
70592;SDS011;58294;42.988;20.338;2023-04-24T06:06:28;48.78;;;39.65;;
70592;SDS011;58294;42.988;20.338;2023-04-24T06:08:55;44.95;;;38.28;;
70592;SDS011;58294;42.988;20.338;2023-04-24T06:11:22;48.72;;;37.65;;
70592;SDS011;58294;42.988;20.338;2023-04-24T06:13:47;42.55;;;36.88;;
70592;SDS011;58294;42.988;20.338;2023-04-24T06:16:13;53.42;;;42.92;;
70592;SDS011;58294;42.988;20.338;2023-04-24T06:18:39;45.47;;;38.20;;
70592;SDS011;58294;42.988;20.338;2023-04-24T06:21:05;43.45;;;36.30;;
70592;SDS011;58294;42.988;20.338;2023-04-24T06:23:31;58.33;;;46.95;;
70592;SDS011;58294;42.988;20.338;2023-04-24T06:25:58;57.17;;;43.65;;
70592;SDS011;58294;42.988;20.338;2023-04-24T06:28:24;51.45;;;39.55;;
70592;SDS011;58294;42.988;20.338;2023-04-24T06:30:51;49.30;;;36.85;;
70592;SDS011;58294;42.988;20.338;2023-04-24T06:33:18;49.28;;;39.55;;
70592;SDS011;58294;42.988;20.338;2023-04-24T06:35:44;50.40;;;41.47;;
70592;SDS011;58294;42.988;20.338;2023-04-24T06:38:10;48.25;;;38.22;;
70592;SDS011;58294;42.988;20.338;2023-04-24T06:40:39;40.97;;;35.85;;
70592;SDS011;58294;42.988;20.338;2023-04-24T06:43:05;51.90;;;44.13;;
70592;SDS011;58294;42.988;20.338;2023-04-24T06:45:31;61.85;;;48.65;;
70592;SDS011;58294;42.988;20.338;2023-04-24T06:47:57;56.63;;;42.08;;
70592;SDS011;58294;42.988;20.338;2023-04-24T06:50:22;60.88;;;45.45;;
70592;SDS011;58294;42.988;20.338;2023-04-24T06:52:49;50.38;;;40.33;;
70592;SDS011;58294;42.988;20.338;2023-04-24T06:55:15;50.53;;;40.88;;
70592;SDS011;58294;42.988;20.338;2023-04-24T06:57:41;54.72;;;40.40;;
70592;SDS011;58294;42.988;20.338;2023-04-24T07:00:09;52.72;;;40.97;;
70592;SDS011;58294;42.988;20.338;2023-04-24T07:02:36;55.10;;;41.78;;
70592;SDS011;58294;42.988;20.338;2023-04-24T07:05:03;43.78;;;35.05;;
70592;SDS011;58294;42.988;20.338;2023-04-24T07:07:29;45.80;;;37.42;;
70592;SDS011;58294;42.988;20.338;2023-04-24T07:09:56;53.22;;;44.33;;
70592;SDS011;58294;42.988;20.338;2023-04-24T07:12:22;50.95;;;36.55;;
70592;SDS011;58294;42.988;20.338;2023-04-24T07:14:48;29.45;;;22.95;;
70592;SDS011;58294;42.988;20.338;2023-04-24T07:17:15;37.33;;;29.75;;
70592;SDS011;58294;42.988;20.338;2023-04-24T07:19:41;35.17;;;28.27;;
70592;SDS011;58294;42.988;20.338;2023-04-24T07:22:07;33.00;;;26.65;;
70592;SDS011;58294;42.988;20.338;2023-04-24T07:24:33;36.95;;;25.95;;
70592;SDS011;58294;42.988;20.338;2023-04-24T07:26:59;30.67;;;21.00;;
70592;SDS011;58294;42.988;20.338;2023-04-24T07:29:26;36.58;;;23.83;;
70592;SDS011;58294;42.988;20.338;2023-04-24T07:31:52;42.05;;;28.77;;
70592;SDS011;58294;42.988;20.338;2023-04-24T07:34:19;47.10;;;26.27;;
70592;SDS011;58294;42.988;20.338;2023-04-24T07:36:45;18.38;;;13.68;;
70592;SDS011;58294;42.988;20.338;2023-04-24T07:39:12;13.70;;;12.23;;
70592;SDS011;58294;42.988;20.338;2023-04-24T07:41:38;12.98;;;11.15;;
70592;SDS011;58294;42.988;20.338;2023-04-24T07:44:05;16.77;;;13.65;;
70592;SDS011;58294;42.988;20.338;2023-04-24T07:46:31;24.58;;;18.75;;
70592;SDS011;58294;42.988;20.338;2023-04-24T07:48:57;33.97;;;19.95;;
70592;SDS011;58294;42.988;20.338;2023-04-24T07:51:24;21.20;;;14.55;;
70592;SDS011;58294;42.988;20.338;2023-04-24T07:53:52;16.60;;;12.45;;
70592;SDS011;58294;42.988;20.338;2023-04-24T07:56:20;13.02;;;6.90;;
70592;SDS011;58294;42.988;20.338;2023-04-24T07:58:46;8.50;;;6.82;;
70592;SDS011;58294;42.988;20.338;2023-04-24T08:01:12;11.43;;;6.47;;
70592;SDS011;58294;42.988;20.338;2023-04-24T08:03:37;8.95;;;5.57;;
70592;SDS011;58294;42.988;20.338;2023-04-24T08:06:04;7.60;;;6.70;;
70592;SDS011;58294;42.988;20.338;2023-04-24T08:08:31;7.97;;;6.57;;
70592;SDS011;58294;42.988;20.338;2023-04-24T08:10:57;17.40;;;13.30;;
70592;SDS011;58294;42.988;20.338;2023-04-24T08:13:23;13.70;;;10.65;;
70592;SDS011;58294;42.988;20.338;2023-04-24T08:15:49;7.07;;;5.65;;
70592;SDS011;58294;42.988;20.338;2023-04-24T08:18:15;7.28;;;5.88;;
70592;SDS011;58294;42.988;20.338;2023-04-24T08:20:41;15.40;;;8.02;;
70592;SDS011;58294;42.988;20.338;2023-04-24T08:23:06;6.75;;;5.45;;
70592;SDS011;58294;42.988;20.338;2023-04-24T08:25:32;9.77;;;6.88;;
70592;SDS011;58294;42.988;20.338;2023-04-24T08:28:01;7.18;;;6.43;;
70592;SDS011;58294;42.988;20.338;2023-04-24T08:30:28;5.90;;;5.05;;
70592;SDS011;58294;42.988;20.338;2023-04-24T08:32:55;5.10;;;4.53;;
70592;SDS011;58294;42.988;20.338;2023-04-24T08:35:21;5.95;;;4.68;;
70592;SDS011;58294;42.988;20.338;2023-04-24T08:37:48;5.60;;;5.00;;
70592;SDS011;58294;42.988;20.338;2023-04-24T08:40:14;12.80;;;11.40;;
70592;SDS011;58294;42.988;20.338;2023-04-24T08:42:44;8.27;;;7.20;;
70592;SDS011;58294;42.988;20.338;2023-04-24T08:45:11;11.35;;;7.75;;
70592;SDS011;58294;42.988;20.338;2023-04-24T08:47:38;7.82;;;5.78;;
70592;SDS011;58294;42.988;20.338;2023-04-24T08:50:05;8.30;;;7.05;;
70592;SDS011;58294;42.988;20.338;2023-04-24T08:52:32;13.57;;;12.30;;
70592;SDS011;58294;42.988;20.338;2023-04-24T08:55:02;8.60;;;6.72;;
70592;SDS011;58294;42.988;20.338;2023-04-24T08:57:29;9.85;;;5.80;;
70592;SDS011;58294;42.988;20.338;2023-04-24T08:59:56;6.95;;;6.15;;
70592;SDS011;58294;42.988;20.338;2023-04-24T09:02:23;16.55;;;11.50;;
70592;SDS011;58294;42.988;20.338;2023-04-24T09:04:50;6.60;;;5.05;;
70592;SDS011;58294;42.988;20.338;2023-04-24T09:07:18;8.38;;;5.70;;
70592;SDS011;58294;42.988;20.338;2023-04-24T09:09:47;7.82;;;7.07;;
70592;SDS011;58294;42.988;20.338;2023-04-24T09:12:15;10.45;;;8.93;;
70592;SDS011;58294;42.988;20.338;2023-04-24T09:14:42;5.32;;;4.75;;
70592;SDS011;58294;42.988;20.338;2023-04-24T09:17:11;7.47;;;5.53;;
70592;SDS011;58294;42.988;20.338;2023-04-24T09:19:39;8.65;;;7.30;;
70592;SDS011;58294;42.988;20.338;2023-04-24T09:22:09;11.00;;;8.07;;
70592;SDS011;58294;42.988;20.338;2023-04-24T09:24:36;11.35;;;8.10;;
70592;SDS011;58294;42.988;20.338;2023-04-24T09:27:02;5.60;;;5.10;;
70592;SDS011;58294;42.988;20.338;2023-04-24T09:29:29;6.45;;;5.18;;
70592;SDS011;58294;42.988;20.338;2023-04-24T09:31:55;7.50;;;6.72;;
70592;SDS011;58294;42.988;20.338;2023-04-24T09:34:24;8.63;;;6.40;;
70592;SDS011;58294;42.988;20.338;2023-04-24T09:36:51;7.40;;;6.10;;
70592;SDS011;58294;42.988;20.338;2023-04-24T09:39:18;6.97;;;5.28;;
70592;SDS011;58294;42.988;20.338;2023-04-24T09:41:51;6.28;;;4.72;;
70592;SDS011;58294;42.988;20.338;2023-04-24T09:44:19;5.28;;;4.40;;
70592;SDS011;58294;42.988;20.338;2023-04-24T09:46:55;6.50;;;5.55;;
70592;SDS011;58294;42.988;20.338;2023-04-24T09:49:22;6.95;;;5.45;;
70592;SDS011;58294;42.988;20.338;2023-04-24T09:52:02;6.90;;;5.07;;
70592;SDS011;58294;42.988;20.338;2023-04-24T09:54:34;8.70;;;6.25;;
70592;SDS011;58294;42.988;20.338;2023-04-24T09:57:04;4.63;;;3.92;;
70592;SDS011;58294;42.988;20.338;2023-04-24T09:59:32;8.52;;;4.85;;
70592;SDS011;58294;42.988;20.338;2023-04-24T10:01:59;8.13;;;5.30;;
70592;SDS011;58294;42.988;20.338;2023-04-24T10:04:25;5.72;;;4.75;;
70592;SDS011;58294;42.988;20.338;2023-04-24T10:06:53;9.95;;;6.55;;
70592;SDS011;58294;42.988;20.338;2023-04-24T10:09:21;7.07;;;5.05;;
70592;SDS011;58294;42.988;20.338;2023-04-24T10:11:49;8.05;;;4.82;;
70592;SDS011;58294;42.988;20.338;2023-04-24T10:14:19;8.45;;;5.10;;
70592;SDS011;58294;42.988;20.338;2023-04-24T10:16:47;5.60;;;4.25;;
70592;SDS011;58294;42.988;20.338;2023-04-24T10:19:14;7.75;;;5.70;;
70592;SDS011;58294;42.988;20.338;2023-04-24T10:21:44;5.03;;;4.60;;
70592;SDS011;58294;42.988;20.338;2023-04-24T10:24:16;5.07;;;4.15;;
70592;SDS011;58294;42.988;20.338;2023-04-24T10:26:43;6.82;;;4.28;;
70592;SDS011;58294;42.988;20.338;2023-04-24T10:29:10;9.05;;;4.70;;
70592;SDS011;58294;42.988;20.338;2023-04-24T10:31:37;11.65;;;6.47;;
70592;SDS011;58294;42.988;20.338;2023-04-24T10:34:05;5.10;;;4.50;;
70592;SDS011;58294;42.988;20.338;2023-04-24T10:36:35;11.02;;;4.88;;
70592;SDS011;58294;42.988;20.338;2023-04-24T10:39:06;7.13;;;4.00;;
70592;SDS011;58294;42.988;20.338;2023-04-24T10:41:36;5.75;;;4.60;;
70592;SDS011;58294;42.988;20.338;2023-04-24T10:44:06;6.50;;;4.43;;
70592;SDS011;58294;42.988;20.338;2023-04-24T10:46:34;5.55;;;4.72;;
70592;SDS011;58294;42.988;20.338;2023-04-24T10:49:04;6.18;;;5.57;;
70592;SDS011;58294;42.988;20.338;2023-04-24T10:51:52;6.43;;;5.82;;
70592;SDS011;58294;42.988;20.338;2023-04-24T10:56:48;13.35;;;10.23;;
70592;SDS011;58294;42.988;20.338;2023-04-24T10:59:25;20.60;;;16.23;;
70592;SDS011;58294;42.988;20.338;2023-04-24T11:02:02;34.97;;;27.23;;
70592;SDS011;58294;42.988;20.338;2023-04-24T11:04:32;17.90;;;16.02;;
70592;SDS011;58294;42.988;20.338;2023-04-24T11:06:58;21.92;;;16.92;;
70592;SDS011;58294;42.988;20.338;2023-04-24T11:09:28;15.30;;;12.73;;
70592;SDS011;58294;42.988;20.338;2023-04-24T11:12:03;20.50;;;17.17;;
70592;SDS011;58294;42.988;20.338;2023-04-24T11:17:31;15.23;;;10.98;;
70592;SDS011;58294;42.988;20.338;2023-04-24T11:20:09;11.73;;;9.30;;
70592;SDS011;58294;42.988;20.338;2023-04-24T11:22:37;9.82;;;7.07;;
70592;SDS011;58294;42.988;20.338;2023-04-24T11:25:05;12.60;;;11.40;;
70592;SDS011;58294;42.988;20.338;2023-04-24T11:27:38;11.68;;;10.40;;
70592;SDS011;58294;42.988;20.338;2023-04-24T11:30:09;10.45;;;8.27;;
70592;SDS011;58294;42.988;20.338;2023-04-24T11:32:42;9.88;;;8.30;;
70592;SDS011;58294;42.988;20.338;2023-04-24T11:35:18;21.02;;;16.13;;
70592;SDS011;58294;42.988;20.338;2023-04-24T11:37:55;11.80;;;9.77;;
70592;SDS011;58294;42.988;20.338;2023-04-24T11:40:22;14.23;;;9.75;;
70592;SDS011;58294;42.988;20.338;2023-04-24T11:42:49;14.15;;;10.70;;
70592;SDS011;58294;42.988;20.338;2023-04-24T11:45:17;9.35;;;8.13;;
70592;SDS011;58294;42.988;20.338;2023-04-24T11:47:47;8.10;;;6.82;;
70592;SDS011;58294;42.988;20.338;2023-04-24T11:50:15;9.70;;;7.22;;
70592;SDS011;58294;42.988;20.338;2023-04-24T11:52:43;9.10;;;8.13;;
70592;SDS011;58294;42.988;20.338;2023-04-24T11:57:44;14.63;;;12.15;;
70592;SDS011;58294;42.988;20.338;2023-04-24T12:02:43;9.50;;;8.50;;
70592;SDS011;58294;42.988;20.338;2023-04-24T12:05:18;9.60;;;8.70;;
70592;SDS011;58294;42.988;20.338;2023-04-24T12:07:49;16.65;;;13.13;;
70592;SDS011;58294;42.988;20.338;2023-04-24T12:10:19;9.80;;;8.85;;
70592;SDS011;58294;42.988;20.338;2023-04-24T12:12:50;16.02;;;14.32;;
70592;SDS011;58294;42.988;20.338;2023-04-24T12:15:17;8.85;;;7.60;;
70592;SDS011;58294;42.988;20.338;2023-04-24T12:17:47;15.68;;;14.18;;
70592;SDS011;58294;42.988;20.338;2023-04-24T12:20:16;17.70;;;15.93;;
70592;SDS011;58294;42.988;20.338;2023-04-24T12:22:45;7.03;;;6.18;;
70592;SDS011;58294;42.988;20.338;2023-04-24T12:25:12;10.93;;;9.73;;
70592;SDS011;58294;42.988;20.338;2023-04-24T12:27:40;28.42;;;25.38;;
70592;SDS011;58294;42.988;20.338;2023-04-24T12:30:09;20.65;;;18.67;;
70592;SDS011;58294;42.988;20.338;2023-04-24T12:32:44;15.27;;;13.88;;
70592;SDS011;58294;42.988;20.338;2023-04-24T12:35:18;14.48;;;13.07;;
70592;SDS011;58294;42.988;20.338;2023-04-24T12:37:45;21.55;;;14.55;;
70592;SDS011;58294;42.988;20.338;2023-04-24T12:40:12;22.25;;;18.55;;
70592;SDS011;58294;42.988;20.338;2023-04-24T12:42:42;17.20;;;15.30;;
70592;SDS011;58294;42.988;20.338;2023-04-24T12:45:12;21.17;;;18.92;;
70592;SDS011;58294;42.988;20.338;2023-04-24T12:47:39;15.55;;;12.82;;
70592;SDS011;58294;42.988;20.338;2023-04-24T12:50:07;14.18;;;10.90;;
70592;SDS011;58294;42.988;20.338;2023-04-24T12:52:47;9.82;;;7.88;;
70592;SDS011;58294;42.988;20.338;2023-04-24T12:55:13;13.43;;;10.75;;
70592;SDS011;58294;42.988;20.338;2023-04-24T12:57:39;11.10;;;10.00;;
70592;SDS011;58294;42.988;20.338;2023-04-24T13:00:06;8.95;;;7.43;;
70592;SDS011;58294;42.988;20.338;2023-04-24T13:02:35;16.27;;;12.05;;
70592;SDS011;58294;42.988;20.338;2023-04-24T13:05:01;14.13;;;12.32;;
70592;SDS011;58294;42.988;20.338;2023-04-24T13:07:27;14.30;;;11.55;;
70592;SDS011;58294;42.988;20.338;2023-04-24T13:09:54;15.93;;;14.27;;
70592;SDS011;58294;42.988;20.338;2023-04-24T13:12:21;14.35;;;12.48;;
70592;SDS011;58294;42.988;20.338;2023-04-24T13:14:48;12.05;;;10.63;;
70592;SDS011;58294;42.988;20.338;2023-04-24T13:17:14;9.02;;;7.97;;
70592;SDS011;58294;42.988;20.338;2023-04-24T13:19:41;16.92;;;12.52;;
70592;SDS011;58294;42.988;20.338;2023-04-24T13:22:11;10.52;;;9.35;;
70592;SDS011;58294;42.988;20.338;2023-04-24T13:24:38;8.68;;;7.75;;
70592;SDS011;58294;42.988;20.338;2023-04-24T13:27:06;9.45;;;8.07;;
70592;SDS011;58294;42.988;20.338;2023-04-24T13:29:32;10.00;;;7.95;;
70592;SDS011;58294;42.988;20.338;2023-04-24T13:31:58;8.27;;;7.43;;
70592;SDS011;58294;42.988;20.338;2023-04-24T13:34:24;9.52;;;8.45;;
70592;SDS011;58294;42.988;20.338;2023-04-24T13:36:52;11.02;;;8.20;;
70592;SDS011;58294;42.988;20.338;2023-04-24T13:39:19;10.30;;;8.40;;
70592;SDS011;58294;42.988;20.338;2023-04-24T13:41:45;11.73;;;9.77;;
70592;SDS011;58294;42.988;20.338;2023-04-24T13:44:13;7.35;;;6.55;;
70592;SDS011;58294;42.988;20.338;2023-04-24T13:46:40;9.70;;;7.60;;
70592;SDS011;58294;42.988;20.338;2023-04-24T13:49:08;9.65;;;8.38;;
70592;SDS011;58294;42.988;20.338;2023-04-24T13:51:34;7.80;;;6.10;;
70592;SDS011;58294;42.988;20.338;2023-04-24T13:54:00;4.43;;;4.00;;
70592;SDS011;58294;42.988;20.338;2023-04-24T13:56:26;6.20;;;4.80;;
70592;SDS011;58294;42.988;20.338;2023-04-24T13:58:52;4.88;;;4.32;;
70592;SDS011;58294;42.988;20.338;2023-04-24T14:01:19;4.32;;;3.92;;
70592;SDS011;58294;42.988;20.338;2023-04-24T14:03:50;5.55;;;4.72;;
70592;SDS011;58294;42.988;20.338;2023-04-24T14:06:17;6.45;;;5.82;;
70592;SDS011;58294;42.988;20.338;2023-04-24T14:08:44;10.65;;;7.97;;
70592;SDS011;58294;42.988;20.338;2023-04-24T14:11:10;7.10;;;5.13;;
70592;SDS011;58294;42.988;20.338;2023-04-24T14:13:36;4.93;;;4.45;;
70592;SDS011;58294;42.988;20.338;2023-04-24T14:16:03;5.15;;;4.05;;
70592;SDS011;58294;42.988;20.338;2023-04-24T14:18:29;5.05;;;4.63;;
70592;SDS011;58294;42.988;20.338;2023-04-24T14:20:56;6.78;;;5.00;;
70592;SDS011;58294;42.988;20.338;2023-04-24T14:23:21;6.43;;;5.82;;
70592;SDS011;58294;42.988;20.338;2023-04-24T14:25:47;6.22;;;4.57;;